ンジャメナ の空港の天気 - METARとTAF

ンジャメナ国際空港 ( FTTJ / NDJ ) - チャド ンジャメナ
飛行場実況気象(Metar)
観測時間08/25 20:00 WAT (08/25 19:00 UTC)
風向・風速南南西 2m/s
視程10km以上
天気現象
少しの雲 雲底高度 700m
少しの雲 雲底高度 1220m
気温25℃
湿度83%
気圧1012hPa
METARFTTJ 251900Z 21004KT 9999 TS FEW023 FEW040CB 25/22 Q1012 NOSIG
過去の天気等 Google飛行場航空写真 Wunderground天気予報

過去48時間のMETAR

飛行場予報(TAF)
発表時間: 8/25 19:00 WAT (8/25 18:00 UTC)
予報対象時間: 25日19時 WAT ~ 27日1時 WAT
風向・風速西南西 4m/s
視程8000m
全天の4割程度の雲 雲底高度 790m
少しの積乱雲 雲底高度 1220m
25日19時 WAT ~ 25日22時 WAT に一時的に
天気現象
26日13時 WAT ~ 26日21時 WAT に一時的に
視程4000m
天気現象雷雨
TAF FTTJ 251800Z 2518/2624 24007KT 8000 SCT026 FEW040CB
TEMPO 2518/2521 TS
TEMPO 2612/2620 4000 TSRA